createdAt,value
2023-03-11T00:00:18.176Z,0.43
2023-03-11T00:02:46.775Z,0.40
2023-03-11T00:05:17.532Z,0.50
2023-03-11T00:07:44.291Z,0.37
2023-03-11T00:10:40.493Z,0.55
2023-03-11T00:13:10.160Z,0.32
2023-03-11T00:15:38.217Z,0.57
2023-03-11T00:18:06.109Z,0.37
2023-03-11T00:20:55.310Z,3.03
2023-03-11T00:23:46.667Z,0.90
2023-03-11T00:26:18.368Z,0.60
2023-03-11T00:28:44.990Z,0.57
2023-03-11T00:31:13.870Z,0.52
2023-03-11T00:33:40.585Z,0.65
2023-03-11T00:36:07.497Z,0.62
2023-03-11T00:38:34.094Z,0.52
2023-03-11T00:41:06.755Z,0.40
2023-03-11T00:43:35.613Z,0.70
2023-03-11T00:46:02.334Z,0.50
2023-03-11T00:48:28.915Z,1.02
2023-03-11T00:51:34.257Z,0.93
2023-03-11T00:54:19.223Z,1.08
2023-03-11T00:56:48.229Z,0.70
2023-03-11T00:59:14.778Z,0.70
2023-03-11T01:01:41.406Z,0.80
2023-03-11T01:04:08.088Z,2.17
2023-03-11T01:06:44.779Z,1.02
2023-03-11T01:30:24.116Z,1.85
2023-03-11T01:32:52.595Z,2.17
2023-03-11T01:35:21.729Z,2.17
2023-03-11T01:37:48.425Z,4.57
2023-03-11T01:40:36.540Z,0.75
2023-03-11T01:43:04.903Z,1.70
2023-03-11T01:59:26.535Z,2.17
2023-03-11T02:05:36.352Z,2.10
2023-03-11T02:08:03.268Z,1.00
2023-03-11T02:10:30.952Z,1.37
2023-03-11T02:12:57.800Z,1.37
2023-03-11T02:15:24.973Z,1.17
2023-03-11T02:17:52.679Z,1.45
2023-03-11T02:21:06.009Z,1.00
2023-03-11T02:23:56.500Z,1.65
2023-03-11T02:26:37.682Z,1.70
2023-03-11T02:30:04.500Z,0.77
2023-03-11T02:32:56.306Z,3.10
2023-03-11T02:35:23.528Z,1.15
2023-03-11T02:37:52.893Z,1.30
2023-03-11T02:40:22.256Z,1.40
2023-03-11T02:42:56.118Z,1.67
2023-03-11T02:45:25.803Z,0.90
2023-03-11T03:01:35.474Z,0.90
2023-03-11T03:07:48.172Z,2.42
2023-03-11T03:10:16.712Z,1.40
2023-03-11T03:12:43.364Z,1.02
2023-03-11T03:15:11.400Z,1.00
2023-03-11T03:17:38.542Z,1.23
2023-03-11T03:20:18.205Z,0.85
2023-03-11T03:22:44.808Z,2.05
2023-03-11T03:25:11.599Z,1.10
2023-03-11T03:27:38.662Z,1.73
2023-03-11T03:30:08.380Z,4.85
2023-03-11T03:32:35.418Z,0.95
2023-03-11T03:35:21.205Z,1.83
2023-03-11T03:37:49.037Z,0.75
2023-03-11T03:40:15.767Z,0.60
2023-03-11T03:42:42.336Z,1.23
2023-03-11T03:50:19.552Z,1.95
2023-03-11T03:52:46.357Z,1.58
2023-03-11T03:55:12.947Z,0.50
2023-03-11T03:57:39.619Z,2.00
2023-03-11T04:00:09.911Z,0.50
2023-03-11T04:03:00.513Z,1.42
2023-03-11T04:05:27.876Z,0.50
2023-03-11T04:07:54.785Z,2.58
2023-03-11T04:10:21.459Z,1.62
2023-03-11T04:12:48.051Z,0.88
2023-03-11T04:16:01.570Z,1.02
2023-03-11T04:18:50.350Z,2.45
2023-03-11T04:21:16.965Z,0.93
2023-03-11T04:23:43.556Z,0.70
2023-03-11T04:26:10.281Z,4.72
2023-03-11T04:28:36.911Z,1.98
2023-03-11T04:31:04.114Z,1.33
2023-03-11T04:33:49.067Z,3.75
2023-03-11T04:36:15.665Z,1.60
2023-03-11T04:38:42.229Z,3.85
2023-03-11T04:41:08.925Z,3.30
2023-03-11T04:44:36.823Z,2.47
2023-03-11T04:47:23.398Z,8.52
2023-03-11T04:49:49.957Z,6.25
2023-03-11T04:52:16.543Z,7.60
2023-03-11T04:54:43.166Z,11.68
2023-03-11T04:57:09.713Z,8.68
2023-03-11T04:59:36.390Z,18.45
2023-03-11T05:04:38.216Z,10.02
2023-03-11T05:07:04.836Z,11.68
2023-03-11T05:09:31.409Z,12.77
2023-03-11T05:11:58.001Z,9.85
2023-03-11T05:14:52.207Z,24.60
2023-03-11T05:17:42.789Z,15.00
2023-03-11T05:20:10.864Z,17.10
2023-03-11T05:22:37.862Z,34.75
2023-03-11T05:25:05.933Z,28.17
2023-03-11T05:27:33.003Z,33.95
2023-03-11T05:29:59.561Z,29.40
2023-03-11T05:59:51.403Z,9.32
2023-03-11T06:02:34.248Z,18.17
2023-03-11T06:05:01.006Z,4.70
2023-03-11T06:10:04.715Z,7.25
2023-03-11T06:12:33.614Z,10.32
2023-03-11T06:15:00.154Z,12.68
2023-03-11T06:18:07.537Z,7.30
2023-03-11T06:20:53.869Z,4.43
2023-03-11T06:23:20.859Z,4.35
2023-03-11T06:25:58.878Z,3.15
2023-03-11T06:28:26.162Z,3.58
2023-03-11T06:30:52.802Z,2.47
2023-03-11T06:33:19.404Z,1.73
2023-03-11T06:36:05.308Z,2.12
2023-03-11T06:38:33.932Z,3.35
2023-03-11T06:41:03.845Z,4.72
2023-03-11T06:43:31.671Z,2.08
2023-03-11T06:48:57.369Z,3.28
2023-03-11T06:51:36.097Z,1.50
2023-03-11T06:54:03.176Z,1.50
2023-03-11T06:56:29.754Z,3.60
2023-03-11T06:58:56.338Z,3.72
2023-03-11T07:01:25.135Z,3.33
2023-03-11T07:03:52.471Z,5.10
2023-03-11T07:08:55.014Z,3.00
2023-03-11T07:11:24.380Z,1.35
2023-03-11T07:13:51.766Z,8.35
2023-03-11T07:16:24.387Z,4.40
2023-03-11T07:18:52.408Z,1.70
2023-03-11T07:22:21.887Z,4.40
2023-03-11T07:25:06.723Z,1.30
2023-03-11T07:27:33.318Z,3.60
2023-03-11T07:30:02.410Z,1.00
2023-03-11T07:32:29.136Z,2.60
2023-03-11T07:34:58.019Z,1.27
2023-03-11T07:37:24.634Z,1.60
2023-03-11T07:39:51.243Z,2.33
2023-03-11T07:42:17.812Z,1.83
2023-03-11T07:44:44.400Z,3.00
2023-03-11T07:47:11.099Z,3.67
2023-03-11T07:49:37.738Z,2.00
2023-03-11T07:52:04.649Z,0.88
2023-03-11T07:54:31.243Z,1.10
2023-03-11T07:56:57.821Z,1.10
2023-03-11T07:59:24.510Z,3.12
2023-03-11T08:01:51.705Z,1.95
2023-03-11T08:04:18.330Z,1.77
2023-03-11T08:06:47.548Z,1.27
2023-03-11T08:09:14.186Z,1.05
2023-03-11T08:11:41.269Z,1.83
2023-03-11T08:14:08.226Z,1.05
2023-03-11T08:16:35.007Z,1.65
2023-03-11T08:19:01.855Z,1.65
2023-03-11T08:21:32.141Z,1.48
2023-03-11T08:26:57.880Z,1.77
2023-03-11T08:32:06.876Z,2.33
2023-03-11T08:41:05.870Z,1.23
2023-03-11T09:21:11.428Z,2.05
2023-03-11T10:47:23.152Z,4.32
2023-03-11T10:49:52.576Z,3.33
2023-03-11T10:52:20.261Z,5.00
2023-03-11T10:54:48.843Z,3.85
2023-03-11T10:57:28.238Z,1.35
2023-03-11T10:59:57.335Z,5.10
2023-03-11T11:02:27.059Z,5.62
2023-03-11T11:05:08.230Z,7.40
2023-03-11T11:07:39.593Z,8.75
2023-03-11T11:10:31.976Z,7.30
2023-03-11T11:13:04.070Z,2.70
2023-03-11T11:15:33.768Z,6.63
2023-03-11T11:18:06.543Z,5.75
2023-03-11T11:20:34.730Z,4.37
2023-03-11T11:23:03.626Z,5.22
2023-03-11T11:25:57.103Z,5.30
2023-03-11T11:31:02.277Z,2.40
2023-03-11T11:33:38.801Z,2.85
2023-03-11T11:36:12.127Z,3.47
2023-03-11T11:38:39.651Z,2.25
2023-03-11T11:41:13.345Z,4.30
2023-03-11T11:43:53.192Z,4.03
2023-03-11T11:46:31.216Z,3.35
2023-03-11T11:49:22.744Z,2.87
2023-03-11T11:51:56.225Z,8.65
2023-03-11T12:05:01.302Z,7.72
2023-03-11T12:08:06.729Z,7.12
2023-03-11T12:15:07.386Z,5.22
2023-03-11T12:17:38.079Z,3.20
2023-03-11T12:20:24.272Z,4.45
2023-03-11T12:22:53.348Z,3.95
2023-03-11T12:25:28.492Z,6.43
2023-03-11T12:28:32.544Z,4.62
2023-03-11T12:31:09.996Z,0.98
2023-03-11T12:33:44.665Z,6.18
2023-03-11T12:36:32.253Z,4.22
2023-03-11T12:39:07.701Z,4.07
2023-03-11T12:42:44.331Z,9.10
2023-03-11T12:45:50.710Z,2.50
2023-03-11T12:48:36.584Z,5.68
2023-03-11T12:51:03.475Z,2.28
2023-03-11T12:53:48.799Z,2.28
2023-03-11T12:56:44.765Z,3.25
2023-03-11T12:59:20.167Z,3.33
2023-03-11T13:01:46.759Z,3.72
2023-03-11T13:04:13.297Z,5.20
2023-03-11T13:07:04.255Z,3.22
2023-03-11T13:13:22.174Z,6.32
2023-03-11T13:15:49.158Z,5.82
2023-03-11T13:18:18.192Z,4.22
2023-03-11T13:20:49.324Z,2.85
2023-03-11T13:23:38.087Z,9.15
2023-03-11T13:26:28.903Z,1.10
2023-03-11T13:31:42.683Z,2.53
2023-03-11T13:34:25.926Z,3.30
2023-03-11T13:50:40.380Z,2.50
2023-03-11T13:53:15.669Z,5.43
2023-03-11T13:55:46.413Z,3.80
2023-03-11T13:58:25.787Z,3.60
2023-03-11T14:01:00.922Z,2.55
2023-03-11T14:03:43.456Z,1.37
2023-03-11T14:06:19.779Z,3.30
2023-03-11T14:08:57.588Z,2.30
2023-03-11T14:11:29.317Z,3.72
2023-03-11T14:18:31.526Z,3.87
2023-03-11T14:20:59.221Z,3.83
2023-03-11T14:23:40.075Z,2.37
2023-03-11T14:26:11.987Z,3.10
2023-03-11T14:28:44.618Z,4.03
2023-03-11T14:33:56.867Z,2.10
2023-03-11T14:36:23.430Z,2.75
2023-03-11T14:38:49.976Z,2.50
2023-03-11T14:41:16.583Z,1.45
2023-03-11T14:43:55.830Z,2.78
2023-03-11T14:46:31.731Z,9.23
2023-03-11T14:49:35.870Z,1.80
2023-03-11T14:52:19.091Z,4.93
2023-03-11T15:09:33.103Z,2.95
2023-03-11T15:12:01.987Z,2.47
2023-03-11T15:14:37.294Z,7.43
2023-03-11T15:17:35.395Z,2.97
2023-03-11T15:20:28.035Z,3.17
2023-03-11T15:23:30.315Z,1.75
2023-03-11T15:26:25.721Z,2.55
2023-03-11T15:29:01.521Z,4.22
2023-03-11T15:31:32.772Z,5.22
2023-03-11T15:34:31.227Z,3.78
2023-03-11T15:37:20.984Z,5.62
2023-03-11T15:39:51.188Z,5.97
2023-03-11T15:42:25.520Z,2.47
2023-03-11T15:44:52.684Z,3.15
2023-03-11T15:47:23.342Z,3.33
2023-03-11T15:50:28.575Z,11.40
2023-03-11T15:53:25.552Z,6.82
2023-03-11T15:56:08.345Z,3.45
2023-03-11T15:58:37.228Z,5.12
2023-03-11T16:01:04.098Z,3.35
2023-03-11T16:03:31.533Z,4.03
2023-03-11T16:05:58.209Z,3.90
2023-03-11T16:08:24.809Z,5.18
2023-03-11T16:13:53.625Z,6.32
2023-03-11T16:16:20.728Z,8.38
2023-03-11T16:18:47.344Z,4.70
2023-03-11T16:21:17.520Z,3.40
2023-03-11T16:23:51.512Z,5.75
2023-03-11T16:26:28.255Z,4.60
2023-03-11T16:29:18.597Z,8.60
2023-03-11T16:32:13.765Z,4.70
2023-03-11T16:34:40.515Z,5.10
2023-03-11T16:37:07.904Z,1.85
2023-03-11T16:39:35.096Z,5.00
2023-03-11T16:42:01.787Z,5.78
2023-03-11T16:44:29.070Z,3.90
2023-03-11T16:46:55.701Z,3.35
2023-03-11T16:49:24.715Z,8.27
2023-03-11T16:51:51.530Z,3.05
2023-03-11T16:54:18.109Z,4.70
2023-03-11T16:57:08.414Z,2.72
2023-03-11T16:59:47.324Z,4.28
2023-03-11T17:02:33.081Z,5.45
2023-03-11T17:04:59.893Z,4.70
2023-03-11T17:07:26.979Z,3.90
2023-03-11T17:09:53.522Z,4.45
2023-03-11T17:12:20.207Z,4.45
2023-03-11T17:14:47.035Z,5.68
2023-03-11T17:17:13.589Z,3.92
2023-03-11T17:19:40.336Z,4.85
2023-03-11T17:22:07.023Z,4.07
2023-03-11T17:24:33.618Z,4.25
2023-03-11T17:27:00.201Z,8.23
2023-03-11T17:29:29.619Z,5.20
2023-03-11T17:32:08.963Z,3.20
2023-03-11T17:34:57.674Z,6.18
2023-03-11T17:37:24.842Z,6.12
2023-03-11T17:39:51.414Z,6.03
2023-03-11T17:42:18.117Z,4.40
2023-03-11T17:44:51.329Z,4.25
2023-03-11T17:47:19.934Z,3.90
2023-03-11T17:52:29.018Z,5.47
2023-03-11T17:54:56.579Z,3.40
2023-03-11T17:57:23.226Z,6.25
2023-03-11T17:59:52.786Z,22.27
2023-03-11T18:02:20.265Z,43.42
2023-03-11T18:04:58.944Z,45.88
2023-03-11T18:07:49.331Z,9.57
2023-03-11T18:10:24.464Z,4.22
2023-03-11T18:12:51.250Z,4.03
2023-03-11T18:15:22.615Z,5.18
2023-03-11T18:17:49.241Z,5.00
2023-03-11T18:20:16.607Z,5.57
2023-03-11T18:22:46.641Z,11.15
2023-03-11T18:25:19.508Z,5.68
2023-03-11T18:27:46.107Z,16.90
2023-03-11T18:30:14.400Z,17.05
2023-03-11T18:32:41.572Z,5.85
2023-03-11T18:35:17.456Z,3.85
2023-03-11T18:38:16.723Z,6.93
2023-03-11T18:40:56.364Z,5.30
2023-03-11T18:43:22.935Z,5.12
2023-03-11T18:45:49.492Z,5.47
2023-03-11T18:48:16.087Z,5.85
2023-03-11T18:50:42.747Z,6.60
2023-03-11T18:53:09.286Z,4.35
2023-03-11T18:55:35.830Z,4.93
2023-03-11T18:58:09.666Z,6.65
2023-03-11T19:00:36.612Z,5.68
2023-03-11T19:03:03.524Z,4.93
2023-03-11T19:05:55.201Z,5.72
2023-03-11T19:08:31.059Z,5.78
2023-03-11T19:10:57.629Z,5.62
2023-03-11T19:13:27.961Z,6.15
2023-03-11T19:16:00.385Z,4.35
2023-03-11T19:18:27.081Z,5.07
2023-03-11T19:20:57.767Z,5.57
2023-03-11T19:26:21.055Z,4.03
2023-03-11T19:28:50.425Z,5.00
2023-03-11T19:31:17.110Z,5.03
2023-03-11T19:33:50.847Z,4.95
2023-03-11T19:36:32.819Z,5.15
2023-03-11T19:39:11.625Z,4.35
2023-03-11T19:41:38.182Z,4.68
2023-03-11T19:44:05.010Z,5.78
2023-03-11T19:46:34.702Z,3.95
2023-03-11T19:49:01.571Z,4.55
2023-03-11T19:51:32.860Z,4.60
2023-03-11T19:54:05.725Z,6.68
2023-03-11T19:56:32.336Z,4.95
2023-03-11T19:58:58.864Z,5.05
2023-03-11T20:01:28.321Z,6.10
2023-03-11T20:03:54.907Z,6.07
2023-03-11T20:06:22.815Z,4.70
2023-03-11T20:08:54.764Z,4.22
2023-03-11T20:11:56.840Z,5.85
2023-03-11T20:14:42.335Z,5.05
2023-03-11T20:17:09.397Z,7.85
2023-03-11T20:19:36.327Z,9.82
2023-03-11T20:22:03.180Z,5.87
2023-03-11T20:24:42.172Z,5.65
2023-03-11T20:27:08.859Z,6.62
2023-03-11T20:29:35.445Z,7.47
2023-03-11T20:32:04.061Z,8.98
2023-03-11T20:34:30.674Z,8.15
2023-03-11T20:36:57.339Z,7.62
2023-03-11T20:39:24.086Z,6.47
2023-03-11T20:41:50.693Z,7.03
2023-03-11T20:44:17.223Z,5.78
2023-03-11T20:46:43.906Z,6.60
2023-03-11T20:49:29.260Z,6.72
2023-03-11T20:52:20.004Z,6.47
2023-03-11T20:54:52.802Z,6.32
2023-03-11T20:57:19.425Z,8.18
2023-03-11T20:59:46.004Z,5.62
2023-03-11T21:02:12.576Z,4.82
2023-03-11T21:04:41.283Z,6.18
2023-03-11T21:07:07.951Z,6.03
2023-03-11T21:09:39.721Z,6.55
2023-03-11T21:12:06.425Z,6.40
2023-03-11T21:14:32.960Z,5.60
2023-03-11T21:16:59.616Z,6.12
2023-03-11T21:19:44.784Z,5.30
2023-03-11T21:22:23.610Z,5.07
2023-03-11T21:24:59.194Z,4.47
2023-03-11T21:27:26.660Z,7.07
2023-03-11T21:29:54.727Z,5.68
2023-03-11T21:32:21.894Z,7.55
2023-03-11T21:34:48.594Z,5.95
2023-03-11T21:37:15.233Z,6.05
2023-03-11T21:39:42.436Z,6.68
2023-03-11T21:42:09.019Z,7.85
2023-03-11T21:44:35.723Z,7.37
2023-03-11T21:47:02.461Z,6.15
2023-03-11T21:49:54.233Z,5.80
2023-03-11T21:52:36.148Z,6.25
2023-03-11T21:55:02.746Z,7.10
2023-03-11T21:57:29.547Z,5.43
2023-03-11T21:59:56.210Z,5.43
2023-03-11T22:02:23.016Z,5.43
2023-03-11T22:04:49.700Z,5.37
2023-03-11T22:07:16.894Z,5.20
2023-03-11T22:09:43.501Z,5.03
2023-03-11T22:12:10.423Z,4.90
2023-03-11T22:14:36.990Z,5.95
2023-03-11T22:17:03.706Z,4.80
2023-03-11T22:19:52.350Z,4.60
2023-03-11T22:22:40.808Z,4.32
2023-03-11T22:25:08.019Z,3.58
2023-03-11T22:27:34.716Z,5.80
2023-03-11T22:30:19.428Z,6.07
2023-03-11T22:32:46.571Z,4.80
2023-03-11T22:35:13.130Z,5.28
2023-03-11T22:40:15.023Z,5.62
2023-03-11T22:42:41.663Z,5.50
2023-03-11T22:45:08.567Z,5.53
2023-03-11T22:47:35.174Z,4.37
2023-03-11T22:50:01.849Z,7.00
2023-03-11T22:52:40.672Z,4.22
2023-03-11T22:55:19.318Z,5.10
2023-03-11T22:58:01.043Z,4.55
2023-03-11T23:00:27.637Z,4.15
2023-03-11T23:02:55.770Z,4.60
2023-03-11T23:05:23.605Z,4.45
2023-03-11T23:07:50.941Z,4.80
2023-03-11T23:10:21.016Z,5.53
2023-03-11T23:12:48.059Z,6.30
2023-03-11T23:15:18.507Z,5.30
2023-03-11T23:17:45.321Z,4.55
2023-03-11T23:20:15.192Z,4.78
2023-03-11T23:22:42.441Z,5.78
2023-03-11T23:25:12.450Z,5.93
2023-03-11T23:28:04.455Z,4.75
2023-03-11T23:30:44.434Z,5.20
2023-03-11T23:33:21.557Z,5.32
2023-03-11T23:35:48.112Z,5.80
2023-03-11T23:38:14.702Z,5.07
2023-03-11T23:40:41.644Z,4.72
2023-03-11T23:43:08.257Z,5.57
2023-03-11T23:45:34.862Z,5.20
2023-03-11T23:48:07.703Z,5.70
2023-03-11T23:50:50.803Z,5.90
2023-03-11T23:53:21.318Z,4.45
2023-03-11T23:55:47.880Z,3.90
2023-03-11T23:59:10.915Z,5.60
